createdAt,value
2023-01-07T00:00:20.466Z,53.88
2023-01-07T00:02:42.657Z,61.25
2023-01-07T00:04:44.394Z,61.10
2023-01-07T00:06:49.070Z,60.47
2023-01-07T00:08:51.605Z,62.20
2023-01-07T00:10:53.242Z,62.50
2023-01-07T00:12:55.246Z,58.25
2023-01-07T00:14:56.971Z,62.08
2023-01-07T00:16:58.692Z,66.97
2023-01-07T00:19:01.605Z,64.27
2023-01-07T00:21:04.794Z,60.92
2023-01-07T00:23:06.449Z,63.53
2023-01-07T00:25:08.736Z,68.70
2023-01-07T00:27:10.457Z,62.78
2023-01-07T00:29:12.923Z,61.40
2023-01-07T00:31:16.556Z,62.43
2023-01-07T00:33:20.096Z,60.35
2023-01-07T00:35:23.491Z,62.53
2023-01-07T00:37:43.762Z,60.50
2023-01-07T00:39:46.075Z,62.22
2023-01-07T00:42:07.089Z,63.20
2023-01-07T00:44:08.907Z,72.40
2023-01-07T00:46:12.637Z,67.60
2023-01-07T00:48:14.604Z,67.80
2023-01-07T00:50:16.392Z,61.80
2023-01-07T00:52:18.451Z,70.13
2023-01-07T00:54:20.177Z,76.65
2023-01-07T00:56:22.111Z,73.32
2023-01-07T00:58:25.333Z,95.78
2023-01-07T01:00:27.164Z,105.53
2023-01-07T01:02:28.921Z,100.35
2023-01-07T01:04:31.158Z,122.22
2023-01-07T01:06:32.884Z,92.22
2023-01-07T01:08:34.606Z,96.63
2023-01-07T01:10:36.672Z,95.70
2023-01-07T01:12:38.569Z,98.13
2023-01-07T01:14:40.217Z,93.93
2023-01-07T01:16:42.394Z,122.87
2023-01-07T01:18:44.560Z,134.73
2023-01-07T01:20:46.264Z,103.70
2023-01-07T01:22:48.283Z,152.57
2023-01-07T01:24:50.444Z,134.60
2023-01-07T01:26:52.254Z,170.27
2023-01-07T01:28:54.231Z,115.03
2023-01-07T01:30:55.975Z,112.75
2023-01-07T01:32:57.744Z,112.70
2023-01-07T01:34:59.787Z,287.63
2023-01-07T01:37:01.517Z,162.38
2023-01-07T01:39:03.316Z,114.88
2023-01-07T01:41:06.005Z,114.28
2023-01-07T01:43:26.299Z,119.50
2023-01-07T01:45:28.440Z,102.22
2023-01-07T01:47:46.926Z,96.85
2023-01-07T01:49:54.190Z,99.32
2023-01-07T01:51:58.551Z,100.22
2023-01-07T01:54:02.864Z,115.70
2023-01-07T01:56:07.661Z,150.68
2023-01-07T01:58:12.159Z,109.13
2023-01-07T02:00:16.608Z,106.70
2023-01-07T02:02:21.844Z,94.65
2023-01-07T02:04:25.336Z,102.70
2023-01-07T02:06:29.717Z,346.30
2023-01-07T02:08:31.967Z,109.82
2023-01-07T02:10:33.738Z,132.85
2023-01-07T02:12:42.985Z,203.80
2023-01-07T02:14:59.308Z,166.18
2023-01-07T02:17:03.783Z,481.65
2023-01-07T02:19:17.928Z,278.30
2023-01-07T02:21:31.551Z,449.25
2023-01-07T02:23:51.937Z,121.80
2023-01-07T02:25:56.720Z,116.03
2023-01-07T02:28:04.220Z,218.75
2023-01-07T02:30:22.659Z,119.43
2023-01-07T02:32:27.467Z,114.28
2023-01-07T02:34:38.067Z,137.93
2023-01-07T02:36:45.707Z,302.13
2023-01-07T02:39:06.569Z,137.60
2023-01-07T02:41:08.195Z,145.73
2023-01-07T02:43:13.010Z,443.90
2023-01-07T02:45:20.764Z,372.85
2023-01-07T02:47:28.605Z,304.83
2023-01-07T02:49:30.335Z,113.15
2023-01-07T02:51:36.757Z,216.95
2023-01-07T02:53:39.166Z,198.95
2023-01-07T02:56:04.347Z,125.78
2023-01-07T02:58:21.372Z,268.23
2023-01-07T03:00:23.153Z,124.88
2023-01-07T03:02:44.038Z,130.13
2023-01-07T03:04:46.092Z,130.75
2023-01-07T03:07:17.281Z,346.27
2023-01-07T03:09:24.030Z,201.38
2023-01-07T03:11:28.559Z,150.65
2023-01-07T03:13:37.009Z,185.95
2023-01-07T03:15:57.216Z,318.77
2023-01-07T03:18:04.843Z,146.25
2023-01-07T03:20:07.948Z,101.65
2023-01-07T03:22:10.104Z,305.20
2023-01-07T03:24:12.411Z,287.83
2023-01-07T03:26:15.765Z,240.73
2023-01-07T03:28:19.244Z,155.52
2023-01-07T03:30:22.181Z,127.65
2023-01-07T03:32:25.804Z,124.90
2023-01-07T03:34:28.348Z,132.40
2023-01-07T03:36:33.135Z,131.13
2023-01-07T03:38:36.007Z,95.47
2023-01-07T03:40:38.102Z,128.93
2023-01-07T03:42:41.591Z,108.15
2023-01-07T03:44:43.314Z,101.18
2023-01-07T03:46:45.014Z,103.78
2023-01-07T03:48:47.053Z,101.77
2023-01-07T03:50:48.847Z,105.63
2023-01-07T03:52:53.615Z,118.90
2023-01-07T03:54:55.299Z,136.38
2023-01-07T03:56:57.122Z,106.20
2023-01-07T03:58:59.212Z,93.20
2023-01-07T04:01:01.030Z,93.70
2023-01-07T04:03:02.932Z,88.25
2023-01-07T04:05:05.179Z,88.53
2023-01-07T04:07:06.887Z,92.93
2023-01-07T04:09:08.681Z,89.28
2023-01-07T04:11:10.958Z,101.55
2023-01-07T04:13:12.676Z,82.35
2023-01-07T04:15:14.386Z,86.63
2023-01-07T04:17:16.407Z,81.13
2023-01-07T04:19:18.195Z,86.28
2023-01-07T04:21:19.958Z,88.90
2023-01-07T04:23:21.941Z,93.53
2023-01-07T04:25:23.600Z,87.43
2023-01-07T04:27:25.398Z,89.20
2023-01-07T04:29:27.548Z,79.38
2023-01-07T04:31:29.235Z,81.40
2023-01-07T04:33:30.964Z,84.57
2023-01-07T04:35:33.421Z,80.67
2023-01-07T04:37:35.082Z,80.95
2023-01-07T04:39:36.795Z,86.63
2023-01-07T04:41:39.009Z,84.37
2023-01-07T04:43:40.747Z,90.85
2023-01-07T04:45:42.414Z,90.75
2023-01-07T04:47:44.450Z,89.57
2023-01-07T04:49:46.120Z,85.65
2023-01-07T04:51:47.836Z,80.00
2023-01-07T04:53:49.874Z,82.27
2023-01-07T04:55:52.936Z,77.85
2023-01-07T04:57:54.767Z,90.15
2023-01-07T04:59:56.756Z,105.95
2023-01-07T05:01:58.507Z,98.60
2023-01-07T05:04:00.327Z,97.78
2023-01-07T05:06:02.733Z,90.97
2023-01-07T05:08:04.551Z,85.88
2023-01-07T05:10:06.535Z,85.88
2023-01-07T05:12:08.588Z,79.63
2023-01-07T05:14:11.311Z,85.15
2023-01-07T05:16:13.014Z,83.13
2023-01-07T05:18:15.087Z,85.95
2023-01-07T05:20:16.803Z,82.07
2023-01-07T05:22:18.880Z,90.20
2023-01-07T05:24:20.880Z,88.72
2023-01-07T05:26:22.532Z,88.28
2023-01-07T05:28:24.263Z,85.75
2023-01-07T05:30:26.268Z,88.30
2023-01-07T05:32:27.905Z,89.22
2023-01-07T05:34:29.581Z,88.22
2023-01-07T05:36:31.590Z,86.95
2023-01-07T05:38:33.355Z,80.07
2023-01-07T05:40:35.063Z,83.70
2023-01-07T05:42:37.094Z,76.53
2023-01-07T05:44:38.787Z,77.28
2023-01-07T05:46:40.680Z,84.28
2023-01-07T05:48:42.778Z,86.63
2023-01-07T05:50:44.472Z,74.45
2023-01-07T05:52:46.236Z,75.13
2023-01-07T05:54:48.301Z,79.30
2023-01-07T05:56:50.007Z,81.15
2023-01-07T05:58:51.927Z,80.72
2023-01-07T06:00:54.236Z,77.45
2023-01-07T06:02:55.975Z,72.33
2023-01-07T06:04:57.826Z,73.75
2023-01-07T06:06:59.989Z,67.43
2023-01-07T06:09:01.667Z,66.38
2023-01-07T06:11:03.468Z,61.63
2023-01-07T06:13:05.492Z,63.38
2023-01-07T06:15:07.602Z,62.03
2023-01-07T06:17:09.822Z,62.00
2023-01-07T06:19:11.914Z,61.60
2023-01-07T06:21:16.194Z,61.05
2023-01-07T06:23:17.897Z,64.25
2023-01-07T06:25:19.932Z,64.30
2023-01-07T06:27:21.709Z,64.93
2023-01-07T06:29:25.837Z,59.97
2023-01-07T06:31:27.945Z,60.40
2023-01-07T06:33:30.019Z,56.28
2023-01-07T06:37:35.031Z,52.88
2023-01-07T06:39:36.707Z,51.40
2023-01-07T06:41:38.495Z,56.55
2023-01-07T06:43:40.665Z,53.65
2023-01-07T06:45:42.483Z,56.97
2023-01-07T06:47:45.592Z,51.58
2023-01-07T06:49:47.642Z,52.42
2023-01-07T06:51:49.329Z,51.28
2023-01-07T06:53:51.096Z,52.28
2023-01-07T06:55:53.159Z,52.83
2023-01-07T06:57:54.825Z,58.63
2023-01-07T06:59:56.483Z,54.50
2023-01-07T07:01:58.722Z,53.00
2023-01-07T07:04:00.547Z,52.03
2023-01-07T07:06:02.603Z,55.70
2023-01-07T07:08:07.776Z,57.42
2023-01-07T07:10:09.713Z,55.00
2023-01-07T07:12:11.814Z,53.58
2023-01-07T07:14:13.905Z,49.13
2023-01-07T07:16:15.802Z,52.33
2023-01-07T07:18:18.250Z,56.30
2023-01-07T07:20:20.440Z,55.55
2023-01-07T07:22:22.277Z,55.00
2023-01-07T07:24:24.173Z,55.28
2023-01-07T07:26:26.189Z,53.92
2023-01-07T07:28:27.906Z,50.03
2023-01-07T07:30:47.110Z,53.63
2023-01-07T07:32:49.972Z,54.70
2023-01-07T07:34:52.009Z,56.53
2023-01-07T07:36:53.716Z,49.63
2023-01-07T07:38:55.884Z,56.85
2023-01-07T07:40:57.979Z,50.63
2023-01-07T07:43:11.821Z,58.00
2023-01-07T07:45:16.282Z,52.72
2023-01-07T07:47:18.258Z,53.85
2023-01-07T07:49:20.060Z,51.83
2023-01-07T07:51:22.530Z,57.08
2023-01-07T07:53:24.384Z,61.28
2023-01-07T07:55:26.546Z,67.50
2023-01-07T07:57:28.904Z,59.25
2023-01-07T07:59:30.805Z,62.55
2023-01-07T08:01:33.922Z,59.60
2023-01-07T08:03:36.834Z,63.95
2023-01-07T08:05:45.386Z,64.45
2023-01-07T08:07:47.550Z,63.65
2023-01-07T08:09:49.193Z,61.40
2023-01-07T08:11:50.943Z,67.18
2023-01-07T08:13:53.239Z,62.97
2023-01-07T08:15:54.948Z,63.85
2023-01-07T08:18:04.313Z,57.97
2023-01-07T08:20:07.604Z,66.32
2023-01-07T08:22:09.360Z,60.28
2023-01-07T08:24:11.464Z,63.00
2023-01-07T08:26:13.483Z,59.63
2023-01-07T08:28:15.528Z,62.17
2023-01-07T08:30:17.291Z,56.05
2023-01-07T08:32:19.202Z,55.58
2023-01-07T08:34:21.229Z,66.03
2023-01-07T08:36:23.689Z,55.70
2023-01-07T08:38:27.508Z,64.13
2023-01-07T08:40:29.667Z,64.95
2023-01-07T08:42:31.437Z,60.15
2023-01-07T08:44:34.727Z,58.92
2023-01-07T08:46:36.970Z,60.00
2023-01-07T08:48:40.248Z,63.05
2023-01-07T08:50:41.952Z,59.67
2023-01-07T08:52:47.425Z,64.77
2023-01-07T08:54:49.132Z,57.80
2023-01-07T08:56:50.911Z,59.08
2023-01-07T08:58:52.953Z,76.53
2023-01-07T09:00:54.862Z,62.30
2023-01-07T09:02:56.620Z,51.75
2023-01-07T09:04:58.719Z,52.90
2023-01-07T09:07:00.438Z,50.75
2023-01-07T09:09:02.479Z,55.43
2023-01-07T09:11:04.173Z,57.88
2023-01-07T09:13:05.837Z,51.65
2023-01-07T09:15:08.495Z,52.60
2023-01-07T09:17:10.202Z,54.80
2023-01-07T09:19:12.020Z,47.95
2023-01-07T09:21:14.174Z,50.90
2023-01-07T09:23:15.907Z,45.85
2023-01-07T09:25:17.657Z,47.80
2023-01-07T09:27:19.693Z,54.03
2023-01-07T09:29:21.385Z,45.65
2023-01-07T09:31:24.189Z,51.53
2023-01-07T09:33:26.326Z,48.10
2023-01-07T09:35:27.990Z,51.13
2023-01-07T09:37:29.726Z,47.30
2023-01-07T09:39:32.054Z,47.10
2023-01-07T09:41:33.757Z,49.45
2023-01-07T09:43:59.949Z,44.05
2023-01-07T09:46:06.115Z,50.13
2023-01-07T09:48:22.168Z,43.90
2023-01-07T09:50:26.971Z,50.60
2023-01-07T09:52:33.505Z,49.65
2023-01-07T09:54:36.707Z,51.67
2023-01-07T09:56:39.935Z,51.42
2023-01-07T09:58:43.478Z,43.30
2023-01-07T10:01:08.394Z,43.72
2023-01-07T10:03:22.487Z,42.60
2023-01-07T10:05:43.588Z,41.13
2023-01-07T10:08:29.435Z,48.08
2023-01-07T10:10:27.719Z,46.85
2023-01-07T10:12:29.362Z,43.15
2023-01-07T10:14:34.115Z,44.70
2023-01-07T10:16:43.663Z,45.22
2023-01-07T10:19:03.699Z,48.97
2023-01-07T10:21:05.593Z,48.58
2023-01-07T10:23:10.233Z,43.70
2023-01-07T10:25:16.527Z,46.00
2023-01-07T10:27:24.881Z,43.05
2023-01-07T10:29:30.806Z,44.75
2023-01-07T10:31:33.026Z,47.88
2023-01-07T10:33:35.021Z,45.80
2023-01-07T10:35:39.637Z,45.28
2023-01-07T10:37:42.377Z,39.63
2023-01-07T10:39:50.797Z,40.88
2023-01-07T10:42:02.612Z,41.63
2023-01-07T10:44:21.376Z,43.13
2023-01-07T10:46:48.600Z,43.25
2023-01-07T10:49:04.708Z,41.67
2023-01-07T10:51:14.394Z,43.05
2023-01-07T10:53:17.395Z,42.58
2023-01-07T10:55:39.502Z,41.92
2023-01-07T10:57:41.828Z,37.95
2023-01-07T10:59:47.640Z,43.85
2023-01-07T11:01:51.959Z,37.40
2023-01-07T11:03:56.158Z,42.45
2023-01-07T11:05:59.914Z,42.85
2023-01-07T11:08:03.317Z,41.42
2023-01-07T11:10:05.929Z,39.80
2023-01-07T11:12:13.711Z,46.80
2023-01-07T11:14:27.406Z,40.17
2023-01-07T11:16:31.919Z,39.38
2023-01-07T11:18:33.651Z,54.58
2023-01-07T11:20:43.216Z,44.35
2023-01-07T11:22:45.314Z,43.58
2023-01-07T11:24:47.026Z,40.30
2023-01-07T11:26:50.267Z,41.30
2023-01-07T11:28:56.611Z,39.78
2023-01-07T11:30:59.334Z,41.20
2023-01-07T11:35:05.405Z,40.20
2023-01-07T11:37:10.810Z,41.17
2023-01-07T11:39:19.165Z,42.03
2023-01-07T11:41:22.950Z,39.83
2023-01-07T11:43:25.101Z,40.38
2023-01-07T11:45:30.419Z,42.65
2023-01-07T11:47:32.124Z,43.08
2023-01-07T11:49:40.452Z,37.97
2023-01-07T11:51:43.048Z,42.90
2023-01-07T11:53:46.270Z,42.75
2023-01-07T11:55:57.433Z,224.50
2023-01-07T11:58:29.824Z,43.80
2023-01-07T12:00:21.488Z,43.22
2023-01-07T12:02:25.305Z,46.92
2023-01-07T12:04:33.991Z,44.50
2023-01-07T12:06:38.099Z,44.78
2023-01-07T12:08:41.503Z,47.40
2023-01-07T12:10:43.248Z,47.60
2023-01-07T12:12:44.951Z,45.75
2023-01-07T12:14:47.555Z,45.93
2023-01-07T12:16:51.760Z,43.63
2023-01-07T12:18:58.278Z,50.58
2023-01-07T12:21:09.633Z,44.40
2023-01-07T12:23:18.170Z,49.10
2023-01-07T12:25:20.003Z,48.72
2023-01-07T12:27:30.947Z,46.97
2023-01-07T12:29:36.344Z,50.45
2023-01-07T12:31:38.113Z,47.42
2023-01-07T12:33:46.238Z,50.97
2023-01-07T12:35:48.697Z,57.22
2023-01-07T12:37:50.444Z,49.00
2023-01-07T12:39:56.992Z,40.97
2023-01-07T12:42:02.372Z,37.13
2023-01-07T12:44:18.431Z,39.38
2023-01-07T12:46:21.331Z,43.53
2023-01-07T12:48:25.908Z,36.83
2023-01-07T12:50:40.537Z,39.00
2023-01-07T12:52:45.297Z,47.78
2023-01-07T12:54:47.006Z,39.08
2023-01-07T12:56:48.707Z,39.20
2023-01-07T12:58:53.749Z,36.07
2023-01-07T13:01:15.600Z,40.75
2023-01-07T13:03:36.393Z,35.95
2023-01-07T13:05:45.544Z,35.38
2023-01-07T13:07:52.407Z,35.88
2023-01-07T13:09:59.943Z,35.30
2023-01-07T13:12:42.344Z,39.03
2023-01-07T13:14:47.644Z,40.77
2023-01-07T13:16:49.513Z,34.63
2023-01-07T13:18:51.166Z,34.28
2023-01-07T13:21:04.074Z,36.10
2023-01-07T13:23:05.929Z,33.88
2023-01-07T13:25:19.608Z,32.80
2023-01-07T13:27:37.438Z,28.75
2023-01-07T13:29:58.620Z,29.85
2023-01-07T13:32:19.589Z,38.40
2023-01-07T13:34:45.273Z,32.20
2023-01-07T13:36:56.526Z,33.83
2023-01-07T13:39:13.942Z,36.42
2023-01-07T13:41:25.368Z,29.05
2023-01-07T13:43:38.218Z,32.90
2023-01-07T13:45:40.396Z,29.65
2023-01-07T13:47:47.000Z,47.63
2023-01-07T13:49:57.394Z,44.50
2023-01-07T13:52:14.671Z,41.40
2023-01-07T13:54:36.730Z,40.08
2023-01-07T13:56:39.451Z,33.42
2023-01-07T13:58:45.050Z,37.50
2023-01-07T14:01:07.273Z,44.70
2023-01-07T14:03:27.145Z,38.53
2023-01-07T14:05:29.664Z,40.58
2023-01-07T14:07:32.093Z,40.08
2023-01-07T14:09:35.443Z,39.97
2023-01-07T14:13:59.206Z,45.05
2023-01-07T14:16:01.381Z,46.75
2023-01-07T14:18:17.599Z,45.05
2023-01-07T14:20:28.443Z,46.83
2023-01-07T14:22:45.358Z,44.22
2023-01-07T14:24:47.043Z,44.08
2023-01-07T14:26:51.626Z,47.15
2023-01-07T14:28:59.732Z,48.10
2023-01-07T14:31:01.893Z,112.07
2023-01-07T14:33:05.633Z,48.85
2023-01-07T14:35:20.195Z,51.35
2023-01-07T14:37:32.516Z,52.38
2023-01-07T14:39:35.595Z,44.60
2023-01-07T14:41:57.565Z,51.35
2023-01-07T14:44:02.185Z,47.67
2023-01-07T14:46:04.281Z,50.28
2023-01-07T14:48:08.781Z,50.03
2023-01-07T14:50:19.655Z,53.65
2023-01-07T14:52:24.442Z,53.17
2023-01-07T14:54:38.159Z,57.13
2023-01-07T14:56:57.693Z,55.78
2023-01-07T14:59:07.703Z,57.25
2023-01-07T15:01:34.329Z,54.35
2023-01-07T15:03:39.244Z,55.72
2023-01-07T15:05:59.571Z,53.90
2023-01-07T15:08:22.160Z,46.70
2023-01-07T15:10:44.454Z,47.17
2023-01-07T15:13:06.068Z,47.78
2023-01-07T15:15:36.487Z,49.47
2023-01-07T15:17:39.101Z,45.75
2023-01-07T15:19:41.759Z,44.17
2023-01-07T15:22:07.973Z,45.65
2023-01-07T15:24:39.407Z,43.20
2023-01-07T15:27:03.766Z,43.20
2023-01-07T15:29:17.111Z,43.55
2023-01-07T15:31:28.797Z,44.97
2023-01-07T15:33:30.487Z,55.42
2023-01-07T15:35:40.587Z,51.90
2023-01-07T15:37:46.502Z,42.60
2023-01-07T15:39:52.120Z,36.65
2023-01-07T15:41:54.670Z,38.30
2023-01-07T15:43:56.756Z,38.35
2023-01-07T15:45:58.747Z,39.38
2023-01-07T15:48:08.209Z,43.35
2023-01-07T15:50:22.182Z,58.88
2023-01-07T15:52:26.313Z,50.80
2023-01-07T15:54:31.258Z,43.90
2023-01-07T15:56:34.874Z,43.78
2023-01-07T15:58:40.342Z,42.90
2023-01-07T16:00:42.549Z,43.20
2023-01-07T16:02:45.715Z,55.08
2023-01-07T16:06:55.332Z,38.88
2023-01-07T16:08:58.012Z,46.80
2023-01-07T16:11:01.218Z,39.58
2023-01-07T16:13:04.586Z,78.20
2023-01-07T16:15:33.076Z,393.65
2023-01-07T16:17:35.976Z,415.85
2023-01-07T16:19:38.126Z,241.32
2023-01-07T16:21:41.324Z,71.70
2023-01-07T16:23:43.474Z,64.10
2023-01-07T16:25:47.381Z,62.33
2023-01-07T16:27:49.798Z,46.42
2023-01-07T16:29:52.654Z,44.67
2023-01-07T16:31:55.625Z,41.45
2023-01-07T16:33:58.321Z,45.13
2023-01-07T16:36:01.250Z,50.47
2023-01-07T16:38:03.761Z,41.45
2023-01-07T16:40:09.459Z,44.17
2023-01-07T16:42:20.917Z,44.92
2023-01-07T16:44:38.034Z,41.15
2023-01-07T16:46:42.773Z,42.42
2023-01-07T16:48:45.573Z,42.83
2023-01-07T16:50:48.271Z,42.35
2023-01-07T16:52:51.206Z,39.53
2023-01-07T16:54:53.285Z,42.88
2023-01-07T16:56:56.617Z,42.25
2023-01-07T16:58:58.335Z,44.70
2023-01-07T17:01:02.032Z,42.27
2023-01-07T17:03:03.931Z,43.97
2023-01-07T17:05:25.132Z,41.28
2023-01-07T17:07:28.725Z,45.15
2023-01-07T17:09:33.676Z,45.03
2023-01-07T17:11:39.243Z,49.92
2023-01-07T17:13:41.300Z,44.80
2023-01-07T17:15:43.677Z,44.65
2023-01-07T17:17:45.413Z,48.30
2023-01-07T17:20:10.780Z,49.20
2023-01-07T17:22:31.044Z,46.67
2023-01-07T17:24:38.927Z,52.60
2023-01-07T17:26:41.981Z,48.63
2023-01-07T17:28:55.470Z,45.40
2023-01-07T17:30:57.239Z,39.90
2023-01-07T17:32:59.238Z,42.33
2023-01-07T17:35:02.583Z,42.88
2023-01-07T17:39:06.399Z,42.13
2023-01-07T17:41:30.923Z,41.75
2023-01-07T17:43:37.585Z,41.67
2023-01-07T17:45:39.428Z,43.55
2023-01-07T17:47:41.156Z,43.95
2023-01-07T17:49:43.156Z,43.47
2023-01-07T17:51:45.912Z,44.25
2023-01-07T17:53:49.037Z,45.65
2023-01-07T17:55:50.927Z,43.42
2023-01-07T17:57:52.948Z,40.95
2023-01-07T17:59:55.339Z,40.42
2023-01-07T18:01:59.148Z,44.30
2023-01-07T18:04:01.362Z,44.28
2023-01-07T18:06:03.370Z,46.67
2023-01-07T18:08:05.163Z,45.70
2023-01-07T18:10:07.466Z,43.60
2023-01-07T18:12:31.562Z,45.08
2023-01-07T18:14:33.720Z,48.13
2023-01-07T18:16:35.940Z,44.58
2023-01-07T18:18:37.872Z,44.22
2023-01-07T18:20:39.857Z,44.78
2023-01-07T18:22:42.015Z,46.90
2023-01-07T18:24:44.081Z,43.25
2023-01-07T18:26:46.147Z,37.85
2023-01-07T18:28:48.420Z,44.63
2023-01-07T18:30:50.460Z,49.22
2023-01-07T18:32:53.716Z,43.45
2023-01-07T18:34:55.738Z,46.88
2023-01-07T18:36:57.925Z,54.95
2023-01-07T18:38:59.935Z,48.88
2023-01-07T18:41:01.637Z,49.00
2023-01-07T18:43:03.537Z,54.90
2023-01-07T18:45:06.009Z,47.50
2023-01-07T18:47:07.650Z,49.77
2023-01-07T18:49:10.311Z,43.28
2023-01-07T18:51:12.529Z,51.47
2023-01-07T18:53:14.553Z,50.53
2023-01-07T18:55:18.048Z,45.33
2023-01-07T18:57:19.911Z,41.75
2023-01-07T18:59:21.928Z,45.50
2023-01-07T19:01:23.867Z,43.53
2023-01-07T19:03:25.659Z,49.07
2023-01-07T19:05:28.447Z,51.93
2023-01-07T19:07:30.191Z,54.13
2023-01-07T19:09:31.844Z,57.92
2023-01-07T19:11:33.871Z,64.70
2023-01-07T19:13:35.617Z,60.72
2023-01-07T19:15:38.399Z,71.03
2023-01-07T19:17:40.479Z,69.97
2023-01-07T19:19:48.208Z,74.50
2023-01-07T19:21:50.951Z,75.13
2023-01-07T19:23:52.648Z,77.22
2023-01-07T19:26:02.421Z,74.13
2023-01-07T19:28:04.188Z,81.22
2023-01-07T19:30:06.553Z,77.97
2023-01-07T19:32:08.405Z,75.87
2023-01-07T19:34:10.707Z,79.60
2023-01-07T19:36:12.921Z,75.80
2023-01-07T19:38:14.645Z,65.82
2023-01-07T19:40:16.748Z,68.50
2023-01-07T19:42:18.494Z,71.75
2023-01-07T19:44:20.568Z,74.13
2023-01-07T19:46:22.319Z,73.22
2023-01-07T19:48:24.032Z,77.07
2023-01-07T19:50:26.108Z,69.40
2023-01-07T19:52:28.206Z,68.10
2023-01-07T19:54:30.204Z,79.47
2023-01-07T19:56:32.421Z,74.95
2023-01-07T19:58:34.232Z,80.60
2023-01-07T20:00:36.236Z,81.67
2023-01-07T20:02:37.966Z,80.78
2023-01-07T20:04:40.781Z,86.60
2023-01-07T20:06:42.595Z,86.53
2023-01-07T20:08:45.179Z,97.57
2023-01-07T20:10:54.853Z,90.65
2023-01-07T20:12:56.559Z,86.95
2023-01-07T20:14:58.577Z,90.90
2023-01-07T20:17:00.405Z,98.65
2023-01-07T20:19:02.853Z,86.88
2023-01-07T20:21:04.643Z,91.25
2023-01-07T20:23:06.387Z,93.82
2023-01-07T20:25:09.231Z,93.93
2023-01-07T20:27:11.020Z,87.05
2023-01-07T20:29:13.232Z,89.63
2023-01-07T20:31:16.841Z,86.82
2023-01-07T20:33:19.279Z,94.97
2023-01-07T20:35:22.724Z,98.63
2023-01-07T20:39:30.100Z,86.65
2023-01-07T20:41:32.551Z,84.95
2023-01-07T20:43:35.214Z,79.28
2023-01-07T20:47:40.401Z,77.22
2023-01-07T20:49:42.437Z,75.47
2023-01-07T20:51:44.144Z,83.45
2023-01-07T20:53:49.251Z,72.10
2023-01-07T20:56:00.633Z,78.68
2023-01-07T20:58:02.417Z,72.43
2023-01-07T21:00:04.656Z,87.22
2023-01-07T21:02:06.918Z,75.78
2023-01-07T21:04:09.386Z,77.00
2023-01-07T21:06:12.298Z,81.03
2023-01-07T21:08:14.024Z,71.20
2023-01-07T21:10:17.700Z,79.47
2023-01-07T21:12:19.407Z,71.57
2023-01-07T21:14:21.475Z,75.23
2023-01-07T21:16:24.198Z,75.10
2023-01-07T21:18:26.244Z,72.10
2023-01-07T21:20:27.896Z,75.03
2023-01-07T21:22:30.116Z,75.22
2023-01-07T21:24:32.826Z,79.32
2023-01-07T21:26:34.536Z,85.80
2023-01-07T21:28:36.806Z,76.40
2023-01-07T21:30:38.463Z,72.88
2023-01-07T21:32:40.577Z,71.90
2023-01-07T21:34:42.806Z,77.10
2023-01-07T21:36:44.608Z,79.20
2023-01-07T21:38:47.136Z,74.05
2023-01-07T21:40:49.206Z,77.78
2023-01-07T21:42:50.977Z,73.53
2023-01-07T21:44:52.724Z,73.47
2023-01-07T21:46:54.760Z,76.00
2023-01-07T21:48:56.856Z,75.95
2023-01-07T21:51:03.058Z,83.25
2023-01-07T21:53:04.801Z,81.88
2023-01-07T21:55:06.905Z,74.65
2023-01-07T21:57:08.909Z,84.28
2023-01-07T21:59:10.757Z,70.75
2023-01-07T22:01:13.717Z,74.88
2023-01-07T22:03:15.674Z,83.32
2023-01-07T22:05:17.494Z,81.75
2023-01-07T22:07:19.582Z,76.38
2023-01-07T22:09:21.504Z,83.88
2023-01-07T22:11:23.485Z,76.72
2023-01-07T22:13:25.492Z,79.47
2023-01-07T22:15:27.188Z,79.80
2023-01-07T22:17:29.266Z,80.63
2023-01-07T22:19:31.013Z,83.25
2023-01-07T22:21:33.214Z,87.67
2023-01-07T22:23:37.223Z,81.60
2023-01-07T22:25:39.153Z,82.53
2023-01-07T22:27:41.129Z,86.40
2023-01-07T22:29:44.638Z,85.40
2023-01-07T22:31:49.707Z,89.85
2023-01-07T22:33:51.609Z,84.68
2023-01-07T22:35:53.431Z,86.82
2023-01-07T22:37:56.057Z,90.70
2023-01-07T22:39:59.910Z,88.20
2023-01-07T22:42:06.045Z,94.43
2023-01-07T22:44:14.819Z,85.78
2023-01-07T22:46:19.534Z,88.18
2023-01-07T22:48:24.085Z,82.18
2023-01-07T22:50:26.138Z,84.80
2023-01-07T22:52:28.138Z,83.20
2023-01-07T22:54:31.029Z,83.53
2023-01-07T22:56:33.520Z,91.03
2023-01-07T22:58:35.234Z,79.68
2023-01-07T23:00:40.004Z,85.75
2023-01-07T23:02:42.020Z,80.88
2023-01-07T23:04:43.677Z,85.65
2023-01-07T23:06:45.735Z,85.13
2023-01-07T23:08:47.503Z,80.97
2023-01-07T23:10:49.291Z,77.82
2023-01-07T23:12:51.350Z,80.97
2023-01-07T23:14:53.001Z,81.88
2023-01-07T23:16:55.367Z,83.95
2023-01-07T23:20:59.278Z,76.28
2023-01-07T23:23:00.932Z,79.75
2023-01-07T23:25:03.400Z,76.63
2023-01-07T23:27:05.062Z,77.70
2023-01-07T23:29:07.339Z,77.83
2023-01-07T23:31:10.232Z,78.55
2023-01-07T23:33:11.918Z,79.20
2023-01-07T23:35:14.367Z,87.03
2023-01-07T23:37:16.068Z,82.67
2023-01-07T23:39:18.165Z,78.37
2023-01-07T23:41:19.819Z,84.07
2023-01-07T23:43:21.543Z,82.03
2023-01-07T23:45:23.819Z,85.17
2023-01-07T23:47:25.605Z,86.30
2023-01-07T23:49:27.781Z,81.63
2023-01-07T23:51:29.472Z,82.97
2023-01-07T23:53:31.161Z,87.13
2023-01-07T23:55:33.487Z,87.78
2023-01-07T23:57:35.147Z,80.88
2023-01-07T23:59:37.698Z,83.78
